sensor_id;sensor_type;location;lat;lon;timestamp;temperature;humidity
30304;DHT22;17112;48.636;10.152;2022-11-02T00:01:18;9.90;71.50
30304;DHT22;17112;48.636;10.152;2022-11-02T00:03:45;9.90;71.50
30304;DHT22;17112;48.636;10.152;2022-11-02T00:06:11;9.80;71.40
30304;DHT22;17112;48.636;10.152;2022-11-02T00:08:37;9.80;71.40
30304;DHT22;17112;48.636;10.152;2022-11-02T00:11:02;9.80;71.40
30304;DHT22;17112;48.636;10.152;2022-11-02T00:13:28;9.70;71.30
30304;DHT22;17112;48.636;10.152;2022-11-02T00:15:54;9.70;71.30
30304;DHT22;17112;48.636;10.152;2022-11-02T00:18:20;9.70;71.40
30304;DHT22;17112;48.636;10.152;2022-11-02T00:20:46;9.60;71.40
30304;DHT22;17112;48.636;10.152;2022-11-02T00:23:13;9.60;71.40
30304;DHT22;17112;48.636;10.152;2022-11-02T00:25:43;9.60;71.40
30304;DHT22;17112;48.636;10.152;2022-11-02T00:28:09;9.60;71.40
30304;DHT22;17112;48.636;10.152;2022-11-02T00:30:36;9.50;72.20
30304;DHT22;17112;48.636;10.152;2022-11-02T00:33:02;9.50;71.80
30304;DHT22;17112;48.636;10.152;2022-11-02T00:35:28;9.50;71.70
30304;DHT22;17112;48.636;10.152;2022-11-02T00:37:53;9.50;71.60
30304;DHT22;17112;48.636;10.152;2022-11-02T00:40:19;9.40;71.60
30304;DHT22;17112;48.636;10.152;2022-11-02T00:42:47;9.40;71.60
30304;DHT22;17112;48.636;10.152;2022-11-02T00:45:12;9.40;71.60
30304;DHT22;17112;48.636;10.152;2022-11-02T00:47:38;9.40;71.70
30304;DHT22;17112;48.636;10.152;2022-11-02T00:50:04;9.30;71.50
30304;DHT22;17112;48.636;10.152;2022-11-02T00:52:30;9.30;71.40
30304;DHT22;17112;48.636;10.152;2022-11-02T00:54:56;9.30;71.50
30304;DHT22;17112;48.636;10.152;2022-11-02T00:57:22;9.30;71.50
30304;DHT22;17112;48.636;10.152;2022-11-02T00:59:47;9.20;71.50
30304;DHT22;17112;48.636;10.152;2022-11-02T01:02:13;9.20;71.60
30304;DHT22;17112;48.636;10.152;2022-11-02T01:04:39;9.20;71.70
30304;DHT22;17112;48.636;10.152;2022-11-02T01:07:05;9.20;71.70
30304;DHT22;17112;48.636;10.152;2022-11-02T01:09:30;9.20;71.90
30304;DHT22;17112;48.636;10.152;2022-11-02T01:11:56;9.20;72.00
30304;DHT22;17112;48.636;10.152;2022-11-02T01:14:22;9.10;71.90
30304;DHT22;17112;48.636;10.152;2022-11-02T01:16:48;9.10;71.90
30304;DHT22;17112;48.636;10.152;2022-11-02T01:19:14;9.10;71.80
30304;DHT22;17112;48.636;10.152;2022-11-02T01:21:41;9.10;71.80
30304;DHT22;17112;48.636;10.152;2022-11-02T01:24:07;9.10;71.80
30304;DHT22;17112;48.636;10.152;2022-11-02T01:26:33;9.10;71.90
30304;DHT22;17112;48.636;10.152;2022-11-02T01:28:58;9.00;71.80
30304;DHT22;17112;48.636;10.152;2022-11-02T01:31:24;9.00;71.70
30304;DHT22;17112;48.636;10.152;2022-11-02T01:33:50;9.00;71.60
30304;DHT22;17112;48.636;10.152;2022-11-02T01:36:17;9.00;71.50
30304;DHT22;17112;48.636;10.152;2022-11-02T01:38:46;8.90;71.50
30304;DHT22;17112;48.636;10.152;2022-11-02T01:41:14;8.90;71.50
30304;DHT22;17112;48.636;10.152;2022-11-02T01:43:42;8.90;71.50
30304;DHT22;17112;48.636;10.152;2022-11-02T01:49:02;8.80;71.60
30304;DHT22;17112;48.636;10.152;2022-11-02T01:51:57;8.80;71.80
30304;DHT22;17112;48.636;10.152;2022-11-02T01:54:29;8.80;71.50
30304;DHT22;17112;48.636;10.152;2022-11-02T01:57:04;8.80;71.50
30304;DHT22;17112;48.636;10.152;2022-11-02T01:59:37;8.70;71.50
30304;DHT22;17112;48.636;10.152;2022-11-02T02:02:06;8.70;71.60
30304;DHT22;17112;48.636;10.152;2022-11-02T02:04:33;8.80;71.80
30304;DHT22;17112;48.636;10.152;2022-11-02T02:07:00;8.70;71.50
30304;DHT22;17112;48.636;10.152;2022-11-02T02:09:27;8.70;71.80
30304;DHT22;17112;48.636;10.152;2022-11-02T02:11:54;8.60;71.80
30304;DHT22;17112;48.636;10.152;2022-11-02T02:14:20;8.60;71.80
30304;DHT22;17112;48.636;10.152;2022-11-02T02:17:09;8.60;71.80
30304;DHT22;17112;48.636;10.152;2022-11-02T02:19:55;8.60;72.00
30304;DHT22;17112;48.636;10.152;2022-11-02T02:25:04;8.60;72.00
30304;DHT22;17112;48.636;10.152;2022-11-02T02:30:22;8.50;72.00
30304;DHT22;17112;48.636;10.152;2022-11-02T02:35:32;8.50;71.90
30304;DHT22;17112;48.636;10.152;2022-11-02T02:38:03;8.50;72.00
30304;DHT22;17112;48.636;10.152;2022-11-02T02:40:56;8.50;71.90
30304;DHT22;17112;48.636;10.152;2022-11-02T02:43:32;8.50;72.00
30304;DHT22;17112;48.636;10.152;2022-11-02T02:46:09;8.50;71.90
30304;DHT22;17112;48.636;10.152;2022-11-02T02:48:39;8.40;71.90
30304;DHT22;17112;48.636;10.152;2022-11-02T02:51:13;8.40;71.90
30304;DHT22;17112;48.636;10.152;2022-11-02T02:53:41;8.40;72.10
30304;DHT22;17112;48.636;10.152;2022-11-02T02:56:09;8.40;72.20
30304;DHT22;17112;48.636;10.152;2022-11-02T02:58:55;8.30;71.80
30304;DHT22;17112;48.636;10.152;2022-11-02T03:01:23;8.30;72.20
30304;DHT22;17112;48.636;10.152;2022-11-02T03:03:50;8.30;72.10
30304;DHT22;17112;48.636;10.152;2022-11-02T03:06:22;8.20;72.10
30304;DHT22;17112;48.636;10.152;2022-11-02T03:11:30;8.20;72.10
30304;DHT22;17112;48.636;10.152;2022-11-02T03:19:41;8.10;72.20
30304;DHT22;17112;48.636;10.152;2022-11-02T03:25:15;8.10;72.60
30304;DHT22;17112;48.636;10.152;2022-11-02T03:30:27;8.10;72.50
30304;DHT22;17112;48.636;10.152;2022-11-02T03:33:05;8.00;72.30
30304;DHT22;17112;48.636;10.152;2022-11-02T03:35:52;8.00;72.40
30304;DHT22;17112;48.636;10.152;2022-11-02T03:38:23;8.00;72.40
30304;DHT22;17112;48.636;10.152;2022-11-02T03:40:51;8.00;72.50
30304;DHT22;17112;48.636;10.152;2022-11-02T03:43:19;7.90;72.60
30304;DHT22;17112;48.636;10.152;2022-11-02T03:45:54;7.90;72.60
30304;DHT22;17112;48.636;10.152;2022-11-02T03:48:24;7.90;72.80
30304;DHT22;17112;48.636;10.152;2022-11-02T03:50:52;7.90;72.80
30304;DHT22;17112;48.636;10.152;2022-11-02T03:53:20;7.90;72.70
30304;DHT22;17112;48.636;10.152;2022-11-02T03:55:51;7.90;72.70
30304;DHT22;17112;48.636;10.152;2022-11-02T03:58:17;7.90;72.60
30304;DHT22;17112;48.636;10.152;2022-11-02T04:00:46;7.90;72.50
30304;DHT22;17112;48.636;10.152;2022-11-02T04:03:14;7.80;72.50
30304;DHT22;17112;48.636;10.152;2022-11-02T04:05:40;7.80;72.40
30304;DHT22;17112;48.636;10.152;2022-11-02T04:08:08;7.80;72.50
30304;DHT22;17112;48.636;10.152;2022-11-02T04:10:49;7.80;72.70
30304;DHT22;17112;48.636;10.152;2022-11-02T04:13:35;7.80;72.70
30304;DHT22;17112;48.636;10.152;2022-11-02T04:16:19;7.80;72.70
30304;DHT22;17112;48.636;10.152;2022-11-02T04:18:45;7.80;72.80
30304;DHT22;17112;48.636;10.152;2022-11-02T04:21:30;7.80;72.90
30304;DHT22;17112;48.636;10.152;2022-11-02T04:23:55;7.70;72.80
30304;DHT22;17112;48.636;10.152;2022-11-02T04:26:57;7.80;72.90
30304;DHT22;17112;48.636;10.152;2022-11-02T04:29:22;7.70;72.80
30304;DHT22;17112;48.636;10.152;2022-11-02T04:31:48;7.70;73.00
30304;DHT22;17112;48.636;10.152;2022-11-02T04:34:14;7.70;73.00
30304;DHT22;17112;48.636;10.152;2022-11-02T04:36:39;7.70;73.10
30304;DHT22;17112;48.636;10.152;2022-11-02T04:39:05;7.70;73.10
30304;DHT22;17112;48.636;10.152;2022-11-02T04:41:31;7.70;73.00
30304;DHT22;17112;48.636;10.152;2022-11-02T04:44:17;7.70;73.00
30304;DHT22;17112;48.636;10.152;2022-11-02T04:46:43;7.70;73.00
30304;DHT22;17112;48.636;10.152;2022-11-02T04:49:10;7.60;73.00
30304;DHT22;17112;48.636;10.152;2022-11-02T04:51:36;7.70;73.10
30304;DHT22;17112;48.636;10.152;2022-11-02T04:54:04;7.60;73.10
30304;DHT22;17112;48.636;10.152;2022-11-02T04:56:30;7.70;73.10
30304;DHT22;17112;48.636;10.152;2022-11-02T04:58:58;7.70;73.10
30304;DHT22;17112;48.636;10.152;2022-11-02T05:01:26;7.60;73.10
30304;DHT22;17112;48.636;10.152;2022-11-02T05:03:52;7.60;73.10
30304;DHT22;17112;48.636;10.152;2022-11-02T05:06:20;7.60;73.10
30304;DHT22;17112;48.636;10.152;2022-11-02T05:08:46;7.60;73.20
30304;DHT22;17112;48.636;10.152;2022-11-02T05:11:12;7.60;73.10
30304;DHT22;17112;48.636;10.152;2022-11-02T05:13:39;7.60;73.10
30304;DHT22;17112;48.636;10.152;2022-11-02T05:16:06;7.60;73.10
30304;DHT22;17112;48.636;10.152;2022-11-02T05:18:32;7.60;73.10
30304;DHT22;17112;48.636;10.152;2022-11-02T05:20:59;7.60;73.00
30304;DHT22;17112;48.636;10.152;2022-11-02T05:23:25;7.60;73.00
30304;DHT22;17112;48.636;10.152;2022-11-02T05:26:02;7.70;73.00
30304;DHT22;17112;48.636;10.152;2022-11-02T05:28:29;7.60;73.00
30304;DHT22;17112;48.636;10.152;2022-11-02T05:30:58;7.60;72.90
30304;DHT22;17112;48.636;10.152;2022-11-02T05:33:24;7.60;72.90
30304;DHT22;17112;48.636;10.152;2022-11-02T05:35:49;7.60;72.90
30304;DHT22;17112;48.636;10.152;2022-11-02T05:38:15;7.60;73.00
30304;DHT22;17112;48.636;10.152;2022-11-02T05:40:41;7.60;73.00
30304;DHT22;17112;48.636;10.152;2022-11-02T05:43:08;7.50;72.80
30304;DHT22;17112;48.636;10.152;2022-11-02T05:45:34;7.50;73.50
30304;DHT22;17112;48.636;10.152;2022-11-02T05:48:01;7.50;72.80
30304;DHT22;17112;48.636;10.152;2022-11-02T05:50:27;7.50;72.70
30304;DHT22;17112;48.636;10.152;2022-11-02T05:52:53;7.50;72.80
30304;DHT22;17112;48.636;10.152;2022-11-02T05:55:19;7.50;72.80
30304;DHT22;17112;48.636;10.152;2022-11-02T05:57:54;7.50;72.80
30304;DHT22;17112;48.636;10.152;2022-11-02T06:00:21;7.50;72.90
30304;DHT22;17112;48.636;10.152;2022-11-02T06:02:52;7.50;72.90
30304;DHT22;17112;48.636;10.152;2022-11-02T06:05:19;7.50;72.90
30304;DHT22;17112;48.636;10.152;2022-11-02T06:07:45;7.50;72.90
30304;DHT22;17112;48.636;10.152;2022-11-02T06:10:11;7.50;72.90
30304;DHT22;17112;48.636;10.152;2022-11-02T06:12:36;7.50;72.90
30304;DHT22;17112;48.636;10.152;2022-11-02T06:15:02;7.50;72.80
30304;DHT22;17112;48.636;10.152;2022-11-02T06:17:28;7.50;72.70
30304;DHT22;17112;48.636;10.152;2022-11-02T06:19:53;7.50;72.80
30304;DHT22;17112;48.636;10.152;2022-11-02T06:22:19;7.50;72.90
30304;DHT22;17112;48.636;10.152;2022-11-02T06:24:45;7.40;72.90
30304;DHT22;17112;48.636;10.152;2022-11-02T06:27:10;7.40;73.10
30304;DHT22;17112;48.636;10.152;2022-11-02T06:29:36;7.50;73.40
30304;DHT22;17112;48.636;10.152;2022-11-02T06:32:02;7.50;73.50
30304;DHT22;17112;48.636;10.152;2022-11-02T06:34:27;7.50;73.60
30304;DHT22;17112;48.636;10.152;2022-11-02T06:36:53;7.50;73.70
30304;DHT22;17112;48.636;10.152;2022-11-02T06:39:19;7.50;73.70
30304;DHT22;17112;48.636;10.152;2022-11-02T06:41:44;7.60;73.70
30304;DHT22;17112;48.636;10.152;2022-11-02T06:44:10;7.60;73.80
30304;DHT22;17112;48.636;10.152;2022-11-02T06:46:35;7.70;74.00
30304;DHT22;17112;48.636;10.152;2022-11-02T06:49:01;7.70;73.90
30304;DHT22;17112;48.636;10.152;2022-11-02T06:51:27;7.80;73.80
30304;DHT22;17112;48.636;10.152;2022-11-02T06:53:52;7.80;73.70
30304;DHT22;17112;48.636;10.152;2022-11-02T06:56:18;7.90;73.90
30304;DHT22;17112;48.636;10.152;2022-11-02T06:58:44;8.00;74.10
30304;DHT22;17112;48.636;10.152;2022-11-02T07:01:09;8.00;74.10
30304;DHT22;17112;48.636;10.152;2022-11-02T07:03:35;8.00;74.10
30304;DHT22;17112;48.636;10.152;2022-11-02T07:06:01;8.10;74.00
30304;DHT22;17112;48.636;10.152;2022-11-02T07:08:27;8.10;74.10
30304;DHT22;17112;48.636;10.152;2022-11-02T07:10:54;8.20;74.10
30304;DHT22;17112;48.636;10.152;2022-11-02T07:13:20;8.30;74.00
30304;DHT22;17112;48.636;10.152;2022-11-02T07:15:46;8.40;74.00
30304;DHT22;17112;48.636;10.152;2022-11-02T07:18:12;8.40;74.00
30304;DHT22;17112;48.636;10.152;2022-11-02T07:20:38;8.50;74.80
30304;DHT22;17112;48.636;10.152;2022-11-02T07:23:04;8.60;74.10
30304;DHT22;17112;48.636;10.152;2022-11-02T07:25:31;8.60;74.00
30304;DHT22;17112;48.636;10.152;2022-11-02T07:28:00;8.70;74.10
30304;DHT22;17112;48.636;10.152;2022-11-02T07:30:28;8.70;74.10
30304;DHT22;17112;48.636;10.152;2022-11-02T07:32:54;8.80;74.10
30304;DHT22;17112;48.636;10.152;2022-11-02T07:35:20;8.90;74.30
30304;DHT22;17112;48.636;10.152;2022-11-02T07:37:57;9.00;74.40
30304;DHT22;17112;48.636;10.152;2022-11-02T07:40:23;9.10;74.60
30304;DHT22;17112;48.636;10.152;2022-11-02T07:42:49;9.30;74.50
30304;DHT22;17112;48.636;10.152;2022-11-02T07:45:15;9.30;74.40
30304;DHT22;17112;48.636;10.152;2022-11-02T07:47:44;9.50;74.30
30304;DHT22;17112;48.636;10.152;2022-11-02T07:50:18;9.60;74.30
30304;DHT22;17112;48.636;10.152;2022-11-02T07:52:49;9.70;74.50
30304;DHT22;17112;48.636;10.152;2022-11-02T07:55:18;9.80;74.40
30304;DHT22;17112;48.636;10.152;2022-11-02T08:00:19;10.10;74.70
30304;DHT22;17112;48.636;10.152;2022-11-02T08:02:45;10.30;74.60
30304;DHT22;17112;48.636;10.152;2022-11-02T08:05:12;10.50;74.70
30304;DHT22;17112;48.636;10.152;2022-11-02T08:07:37;10.60;74.80
30304;DHT22;17112;48.636;10.152;2022-11-02T08:10:03;10.80;74.80
30304;DHT22;17112;48.636;10.152;2022-11-02T08:12:29;10.90;74.90
30304;DHT22;17112;48.636;10.152;2022-11-02T08:14:55;11.10;75.10
30304;DHT22;17112;48.636;10.152;2022-11-02T08:17:22;11.30;75.10
30304;DHT22;17112;48.636;10.152;2022-11-02T08:19:49;11.40;74.90
30304;DHT22;17112;48.636;10.152;2022-11-02T08:22:14;11.60;74.70
30304;DHT22;17112;48.636;10.152;2022-11-02T08:24:40;11.80;74.50
30304;DHT22;17112;48.636;10.152;2022-11-02T08:27:06;12.00;74.30
30304;DHT22;17112;48.636;10.152;2022-11-02T08:29:31;12.10;74.00
30304;DHT22;17112;48.636;10.152;2022-11-02T08:31:57;12.20;73.70
30304;DHT22;17112;48.636;10.152;2022-11-02T08:34:23;12.40;73.60
30304;DHT22;17112;48.636;10.152;2022-11-02T08:36:48;12.50;73.40
30304;DHT22;17112;48.636;10.152;2022-11-02T08:39:14;12.60;73.20
30304;DHT22;17112;48.636;10.152;2022-11-02T08:41:40;12.70;73.10
30304;DHT22;17112;48.636;10.152;2022-11-02T08:44:05;12.80;73.70
30304;DHT22;17112;48.636;10.152;2022-11-02T08:46:31;12.90;72.90
30304;DHT22;17112;48.636;10.152;2022-11-02T08:48:56;13.00;72.80
30304;DHT22;17112;48.636;10.152;2022-11-02T08:51:22;13.10;72.80
30304;DHT22;17112;48.636;10.152;2022-11-02T08:53:48;13.20;72.90
30304;DHT22;17112;48.636;10.152;2022-11-02T08:56:14;13.30;73.20
30304;DHT22;17112;48.636;10.152;2022-11-02T08:58:39;13.40;73.30
30304;DHT22;17112;48.636;10.152;2022-11-02T09:01:05;13.50;73.20
30304;DHT22;17112;48.636;10.152;2022-11-02T09:03:31;13.60;72.90
30304;DHT22;17112;48.636;10.152;2022-11-02T09:05:58;13.60;72.50
30304;DHT22;17112;48.636;10.152;2022-11-02T09:08:24;13.70;72.50
30304;DHT22;17112;48.636;10.152;2022-11-02T09:10:52;13.80;72.60
30304;DHT22;17112;48.636;10.152;2022-11-02T09:13:19;13.90;72.70
30304;DHT22;17112;48.636;10.152;2022-11-02T09:15:53;13.90;72.80
30304;DHT22;17112;48.636;10.152;2022-11-02T09:18:19;14.00;72.80
30304;DHT22;17112;48.636;10.152;2022-11-02T09:20:45;14.10;72.90
30304;DHT22;17112;48.636;10.152;2022-11-02T09:23:16;14.30;72.90
30304;DHT22;17112;48.636;10.152;2022-11-02T09:25:42;14.40;72.70
30304;DHT22;17112;48.636;10.152;2022-11-02T09:28:08;14.40;72.40
30304;DHT22;17112;48.636;10.152;2022-11-02T09:30:34;14.50;72.00
30304;DHT22;17112;48.636;10.152;2022-11-02T09:33:01;14.60;71.30
30304;DHT22;17112;48.636;10.152;2022-11-02T09:35:30;14.70;71.00
30304;DHT22;17112;48.636;10.152;2022-11-02T09:37:56;14.70;70.60
30304;DHT22;17112;48.636;10.152;2022-11-02T09:40:24;14.70;70.10
30304;DHT22;17112;48.636;10.152;2022-11-02T09:45:35;14.90;69.20
30304;DHT22;17112;48.636;10.152;2022-11-02T09:50:41;14.90;69.10
30304;DHT22;17112;48.636;10.152;2022-11-02T09:53:10;15.00;68.40
30304;DHT22;17112;48.636;10.152;2022-11-02T09:55:44;15.00;68.50
30304;DHT22;17112;48.636;10.152;2022-11-02T09:58:15;15.10;67.70
30304;DHT22;17112;48.636;10.152;2022-11-02T10:00:46;15.10;68.10
30304;DHT22;17112;48.636;10.152;2022-11-02T10:14:51;15.40;67.20
30304;DHT22;17112;48.636;10.152;2022-11-02T10:17:14;15.50;65.60
30304;DHT22;17112;48.636;10.152;2022-11-02T10:19:48;15.50;66.50
30304;DHT22;17112;48.636;10.152;2022-11-02T10:22:16;15.60;66.80
30304;DHT22;17112;48.636;10.152;2022-11-02T10:24:44;15.70;66.60
30304;DHT22;17112;48.636;10.152;2022-11-02T10:27:25;15.70;66.20
30304;DHT22;17112;48.636;10.152;2022-11-02T10:30:02;15.70;63.80
30304;DHT22;17112;48.636;10.152;2022-11-02T10:32:30;15.80;65.60
30304;DHT22;17112;48.636;10.152;2022-11-02T10:34:56;15.90;65.20
30304;DHT22;17112;48.636;10.152;2022-11-02T10:42:58;16.00;64.50
30304;DHT22;17112;48.636;10.152;2022-11-02T10:48:59;16.20;64.20
30304;DHT22;17112;48.636;10.152;2022-11-02T10:51:38;16.30;63.80
30304;DHT22;17112;48.636;10.152;2022-11-02T10:54:11;16.50;64.20
30304;DHT22;17112;48.636;10.152;2022-11-02T10:56:39;16.50;63.90
30304;DHT22;17112;48.636;10.152;2022-11-02T10:59:15;16.60;63.40
30304;DHT22;17112;48.636;10.152;2022-11-02T11:01:48;16.60;62.90
30304;DHT22;17112;48.636;10.152;2022-11-02T11:04:29;16.70;61.90
30304;DHT22;17112;48.636;10.152;2022-11-02T11:06:55;16.70;62.30
30304;DHT22;17112;48.636;10.152;2022-11-02T11:09:36;16.80;62.30
30304;DHT22;17112;48.636;10.152;2022-11-02T11:12:15;16.80;62.30
30304;DHT22;17112;48.636;10.152;2022-11-02T11:14:51;16.90;61.20
30304;DHT22;17112;48.636;10.152;2022-11-02T11:17:25;16.90;61.40
30304;DHT22;17112;48.636;10.152;2022-11-02T11:19:57;16.90;61.40
30304;DHT22;17112;48.636;10.152;2022-11-02T11:22:31;16.90;61.10
30304;DHT22;17112;48.636;10.152;2022-11-02T11:27:48;17.00;59.40
30304;DHT22;17112;48.636;10.152;2022-11-02T11:30:59;17.00;60.50
30304;DHT22;17112;48.636;10.152;2022-11-02T11:34:22;17.00;60.30
30304;DHT22;17112;48.636;10.152;2022-11-02T11:37:17;17.00;60.00
30304;DHT22;17112;48.636;10.152;2022-11-02T11:39:45;17.00;60.20
30304;DHT22;17112;48.636;10.152;2022-11-02T11:42:36;17.00;59.80
30304;DHT22;17112;48.636;10.152;2022-11-02T11:46:18;17.00;59.70
30304;DHT22;17112;48.636;10.152;2022-11-02T11:52:01;17.20;60.90
30304;DHT22;17112;48.636;10.152;2022-11-02T12:17:16;17.50;58.30
30304;DHT22;17112;48.636;10.152;2022-11-02T12:25:55;17.50;58.20
30304;DHT22;17112;48.636;10.152;2022-11-02T12:28:53;17.50;56.50
30304;DHT22;17112;48.636;10.152;2022-11-02T12:31:28;17.50;58.10
30304;DHT22;17112;48.636;10.152;2022-11-02T12:37:13;17.50;58.50
30304;DHT22;17112;48.636;10.152;2022-11-02T12:45:49;17.60;58.40
30304;DHT22;17112;48.636;10.152;2022-11-02T12:48:19;17.60;58.20
30304;DHT22;17112;48.636;10.152;2022-11-02T12:56:05;17.60;57.80
30304;DHT22;17112;48.636;10.152;2022-11-02T12:58:36;17.60;56.60
30304;DHT22;17112;48.636;10.152;2022-11-02T13:01:07;17.60;57.10
30304;DHT22;17112;48.636;10.152;2022-11-02T13:03:50;17.60;57.20
30304;DHT22;17112;48.636;10.152;2022-11-02T13:06:24;17.60;56.90
30304;DHT22;17112;48.636;10.152;2022-11-02T13:09:47;17.60;57.60
30304;DHT22;17112;48.636;10.152;2022-11-02T13:11:50;17.70;57.70
30304;DHT22;17112;48.636;10.152;2022-11-02T13:14:19;17.80;57.70
30304;DHT22;17112;48.636;10.152;2022-11-02T13:17:30;17.90;57.70
30304;DHT22;17112;48.636;10.152;2022-11-02T13:19:46;18.00;57.40
30304;DHT22;17112;48.636;10.152;2022-11-02T13:22:14;18.10;56.30
30304;DHT22;17112;48.636;10.152;2022-11-02T13:24:45;18.30;56.50
30304;DHT22;17112;48.636;10.152;2022-11-02T13:27:39;18.40;55.90
30304;DHT22;17112;48.636;10.152;2022-11-02T13:30:14;18.40;55.50
30304;DHT22;17112;48.636;10.152;2022-11-02T13:32:45;18.50;56.80
30304;DHT22;17112;48.636;10.152;2022-11-02T13:35:23;18.50;56.40
30304;DHT22;17112;48.636;10.152;2022-11-02T13:37:54;18.60;56.10
30304;DHT22;17112;48.636;10.152;2022-11-02T13:40:33;18.80;56.10
30304;DHT22;17112;48.636;10.152;2022-11-02T13:45:34;18.90;54.80
30304;DHT22;17112;48.636;10.152;2022-11-02T13:54:05;18.80;54.00
30304;DHT22;17112;48.636;10.152;2022-11-02T13:56:34;18.60;54.20
30304;DHT22;17112;48.636;10.152;2022-11-02T13:59:04;18.50;54.00
30304;DHT22;17112;48.636;10.152;2022-11-02T14:01:33;18.50;54.70
30304;DHT22;17112;48.636;10.152;2022-11-02T14:06:30;18.40;54.60
30304;DHT22;17112;48.636;10.152;2022-11-02T14:09:06;18.40;54.50
30304;DHT22;17112;48.636;10.152;2022-11-02T14:11:44;18.40;53.90
30304;DHT22;17112;48.636;10.152;2022-11-02T14:27:00;18.80;53.80
30304;DHT22;17112;48.636;10.152;2022-11-02T14:38:18;18.90;52.90
30304;DHT22;17112;48.636;10.152;2022-11-02T14:46:05;18.60;52.20
30304;DHT22;17112;48.636;10.152;2022-11-02T14:48:46;18.50;52.80
30304;DHT22;17112;48.636;10.152;2022-11-02T14:51:19;18.30;52.50
30304;DHT22;17112;48.636;10.152;2022-11-02T14:53:47;18.20;52.50
30304;DHT22;17112;48.636;10.152;2022-11-02T14:56:18;18.10;53.30
30304;DHT22;17112;48.636;10.152;2022-11-02T14:58:54;17.90;53.50
30304;DHT22;17112;48.636;10.152;2022-11-02T15:01:21;17.80;52.90
30304;DHT22;17112;48.636;10.152;2022-11-02T15:03:47;17.70;53.80
30304;DHT22;17112;48.636;10.152;2022-11-02T15:06:23;17.60;54.10
30304;DHT22;17112;48.636;10.152;2022-11-02T15:08:54;17.50;53.90
30304;DHT22;17112;48.636;10.152;2022-11-02T15:11:49;17.40;54.20
30304;DHT22;17112;48.636;10.152;2022-11-02T15:17:00;17.20;54.10
30304;DHT22;17112;48.636;10.152;2022-11-02T15:19:42;17.10;54.70
30304;DHT22;17112;48.636;10.152;2022-11-02T15:22:38;17.00;54.50
30304;DHT22;17112;48.636;10.152;2022-11-02T15:25:19;16.90;54.90
30304;DHT22;17112;48.636;10.152;2022-11-02T15:27:47;16.80;55.00
30304;DHT22;17112;48.636;10.152;2022-11-02T15:30:19;16.70;55.50
30304;DHT22;17112;48.636;10.152;2022-11-02T15:32:58;16.50;55.40
30304;DHT22;17112;48.636;10.152;2022-11-02T15:35:29;16.40;55.50
30304;DHT22;17112;48.636;10.152;2022-11-02T15:37:59;16.30;56.00
30304;DHT22;17112;48.636;10.152;2022-11-02T15:40:34;16.20;56.10
30304;DHT22;17112;48.636;10.152;2022-11-02T16:02:20;15.10;57.70
30304;DHT22;17112;48.636;10.152;2022-11-02T16:04:50;15.00;58.00
30304;DHT22;17112;48.636;10.152;2022-11-02T16:07:17;14.90;58.40
30304;DHT22;17112;48.636;10.152;2022-11-02T16:09:44;14.80;58.70
30304;DHT22;17112;48.636;10.152;2022-11-02T16:12:21;14.70;58.90
30304;DHT22;17112;48.636;10.152;2022-11-02T16:14:56;14.60;59.00
30304;DHT22;17112;48.636;10.152;2022-11-02T16:17:26;14.60;59.20
30304;DHT22;17112;48.636;10.152;2022-11-02T16:20:13;14.40;59.20
30304;DHT22;17112;48.636;10.152;2022-11-02T16:22:50;14.40;59.70
30304;DHT22;17112;48.636;10.152;2022-11-02T16:28:32;14.20;59.90
30304;DHT22;17112;48.636;10.152;2022-11-02T16:33:30;14.10;60.10
30304;DHT22;17112;48.636;10.152;2022-11-02T16:35:56;14.00;60.40
30304;DHT22;17112;48.636;10.152;2022-11-02T16:38:22;13.90;60.40
30304;DHT22;17112;48.636;10.152;2022-11-02T16:40:48;13.80;60.50
30304;DHT22;17112;48.636;10.152;2022-11-02T16:43:14;13.80;60.70
30304;DHT22;17112;48.636;10.152;2022-11-02T16:45:41;13.70;60.80
30304;DHT22;17112;48.636;10.152;2022-11-02T16:48:22;13.60;60.90
30304;DHT22;17112;48.636;10.152;2022-11-02T16:51:19;13.60;61.30
30304;DHT22;17112;48.636;10.152;2022-11-02T16:53:45;13.50;61.60
30304;DHT22;17112;48.636;10.152;2022-11-02T16:56:26;13.40;61.30
30304;DHT22;17112;48.636;10.152;2022-11-02T16:59:00;13.30;61.60
30304;DHT22;17112;48.636;10.152;2022-11-02T17:01:33;13.20;61.90
30304;DHT22;17112;48.636;10.152;2022-11-02T17:04:24;13.20;61.80
30304;DHT22;17112;48.636;10.152;2022-11-02T17:06:54;13.10;62.20
30304;DHT22;17112;48.636;10.152;2022-11-02T17:09:30;13.00;62.20
30304;DHT22;17112;48.636;10.152;2022-11-02T17:12:12;12.90;62.30
30304;DHT22;17112;48.636;10.152;2022-11-02T17:14:43;12.90;62.50
30304;DHT22;17112;48.636;10.152;2022-11-02T17:19:54;12.80;62.80
30304;DHT22;17112;48.636;10.152;2022-11-02T17:24:46;12.60;62.60
30304;DHT22;17112;48.636;10.152;2022-11-02T17:27:17;12.60;62.80
30304;DHT22;17112;48.636;10.152;2022-11-02T17:29:46;12.50;63.10
30304;DHT22;17112;48.636;10.152;2022-11-02T17:32:15;12.40;63.00
30304;DHT22;17112;48.636;10.152;2022-11-02T17:34:52;12.30;63.10
30304;DHT22;17112;48.636;10.152;2022-11-02T17:37:23;12.30;63.30
30304;DHT22;17112;48.636;10.152;2022-11-02T17:39:50;12.20;63.20
30304;DHT22;17112;48.636;10.152;2022-11-02T17:42:16;12.10;63.10
30304;DHT22;17112;48.636;10.152;2022-11-02T17:47:45;12.00;63.60
30304;DHT22;17112;48.636;10.152;2022-11-02T17:50:11;11.90;63.30
30304;DHT22;17112;48.636;10.152;2022-11-02T17:52:37;11.80;63.40
30304;DHT22;17112;48.636;10.152;2022-11-02T17:55:03;11.80;63.50
30304;DHT22;17112;48.636;10.152;2022-11-02T17:57:29;11.70;63.70
30304;DHT22;17112;48.636;10.152;2022-11-02T17:59:55;11.60;63.90
30304;DHT22;17112;48.636;10.152;2022-11-02T18:02:21;11.60;64.00
30304;DHT22;17112;48.636;10.152;2022-11-02T18:04:47;11.50;64.10
30304;DHT22;17112;48.636;10.152;2022-11-02T18:07:12;11.40;64.20
30304;DHT22;17112;48.636;10.152;2022-11-02T18:09:38;11.40;65.10
30304;DHT22;17112;48.636;10.152;2022-11-02T18:12:04;11.30;64.40
30304;DHT22;17112;48.636;10.152;2022-11-02T18:14:30;11.30;64.50
30304;DHT22;17112;48.636;10.152;2022-11-02T18:16:56;11.30;64.60
30304;DHT22;17112;48.636;10.152;2022-11-02T18:19:22;11.20;64.50
30304;DHT22;17112;48.636;10.152;2022-11-02T18:21:47;11.20;64.70
30304;DHT22;17112;48.636;10.152;2022-11-02T18:24:13;11.10;65.50
30304;DHT22;17112;48.636;10.152;2022-11-02T18:26:39;11.10;64.90
30304;DHT22;17112;48.636;10.152;2022-11-02T18:29:04;11.00;64.80
30304;DHT22;17112;48.636;10.152;2022-11-02T18:31:31;11.00;64.80
30304;DHT22;17112;48.636;10.152;2022-11-02T18:33:57;10.90;64.80
30304;DHT22;17112;48.636;10.152;2022-11-02T18:36:23;10.90;65.00
30304;DHT22;17112;48.636;10.152;2022-11-02T18:38:48;10.80;65.00